sensor_id;sensor_type;location;lat;lon;timestamp;pressure;altitude;pressure_sealevel;temperature;humidity
35989;BME280;22064;42.672;23.282;2023-02-19T00:01:15;94934.47;;;5.55;100.00
35989;BME280;22064;42.672;23.282;2023-02-19T00:03:42;94944.16;;;5.66;100.00
35989;BME280;22064;42.672;23.282;2023-02-19T00:06:09;94954.78;;;5.38;100.00
35989;BME280;22064;42.672;23.282;2023-02-19T00:08:37;94951.78;;;5.41;100.00
35989;BME280;22064;42.672;23.282;2023-02-19T00:11:11;94927.97;;;5.39;100.00
35989;BME280;22064;42.672;23.282;2023-02-19T00:13:40;94937.09;;;5.35;100.00
35989;BME280;22064;42.672;23.282;2023-02-19T00:16:07;94937.50;;;5.32;100.00
35989;BME280;22064;42.672;23.282;2023-02-19T00:18:33;94932.72;;;5.29;100.00
35989;BME280;22064;42.672;23.282;2023-02-19T00:20:59;94941.09;;;5.31;100.00
35989;BME280;22064;42.672;23.282;2023-02-19T00:23:25;94927.97;;;5.39;100.00
35989;BME280;22064;42.672;23.282;2023-02-19T00:25:53;94920.81;;;5.28;100.00
35989;BME280;22064;42.672;23.282;2023-02-19T00:28:19;94916.84;;;5.25;100.00
35989;BME280;22064;42.672;23.282;2023-02-19T00:30:46;94918.63;;;5.31;100.00
35989;BME280;22064;42.672;23.282;2023-02-19T00:33:12;94922.38;;;5.36;100.00
35989;BME280;22064;42.672;23.282;2023-02-19T00:35:38;94909.88;;;5.32;100.00
35989;BME280;22064;42.672;23.282;2023-02-19T00:38:04;94915.59;;;5.48;100.00
35989;BME280;22064;42.672;23.282;2023-02-19T00:40:30;94913.25;;;5.40;100.00
35989;BME280;22064;42.672;23.282;2023-02-19T00:42:55;94913.28;;;5.26;100.00
35989;BME280;22064;42.672;23.282;2023-02-19T00:45:21;94907.31;;;5.26;100.00
35989;BME280;22064;42.672;23.282;2023-02-19T00:47:47;94913.69;;;5.30;100.00
35989;BME280;22064;42.672;23.282;2023-02-19T00:50:13;94902.56;;;5.16;100.00
35989;BME280;22064;42.672;23.282;2023-02-19T00:52:39;94901.00;;;5.15;100.00
35989;BME280;22064;42.672;23.282;2023-02-19T00:55:05;94895.41;;;5.25;100.00
35989;BME280;22064;42.672;23.282;2023-02-19T00:57:31;94888.63;;;5.37;100.00
35989;BME280;22064;42.672;23.282;2023-02-19T00:59:57;94884.22;;;5.51;100.00
35989;BME280;22064;42.672;23.282;2023-02-19T01:02:23;94889.34;;;5.57;100.00
35989;BME280;22064;42.672;23.282;2023-02-19T01:04:48;94880.66;;;5.52;100.00
35989;BME280;22064;42.672;23.282;2023-02-19T01:07:15;94887.66;;;5.25;100.00
35989;BME280;22064;42.672;23.282;2023-02-19T01:09:43;94882.09;;;5.35;100.00
35989;BME280;22064;42.672;23.282;2023-02-19T01:12:09;94882.28;;;5.40;100.00
35989;BME280;22064;42.672;23.282;2023-02-19T01:14:35;94872.38;;;5.30;100.00
35989;BME280;22064;42.672;23.282;2023-02-19T01:17:01;94883.28;;;5.32;100.00
35989;BME280;22064;42.672;23.282;2023-02-19T01:19:27;94875.91;;;5.36;100.00
35989;BME280;22064;42.672;23.282;2023-02-19T01:21:53;94880.88;;;5.44;100.00
35989;BME280;22064;42.672;23.282;2023-02-19T01:24:19;94881.47;;;5.46;100.00
35989;BME280;22064;42.672;23.282;2023-02-19T01:26:45;94901.31;;;5.52;100.00
35989;BME280;22064;42.672;23.282;2023-02-19T01:29:10;94902.69;;;5.54;100.00
35989;BME280;22064;42.672;23.282;2023-02-19T01:31:38;94903.88;;;5.59;100.00
35989;BME280;22064;42.672;23.282;2023-02-19T01:34:04;94901.88;;;5.54;100.00
35989;BME280;22064;42.672;23.282;2023-02-19T01:36:32;94922.75;;;5.59;100.00
35989;BME280;22064;42.672;23.282;2023-02-19T01:38:59;94924.69;;;5.70;100.00
35989;BME280;22064;42.672;23.282;2023-02-19T01:41:28;94921.72;;;5.73;100.00
35989;BME280;22064;42.672;23.282;2023-02-19T01:44:04;94936.81;;;5.76;100.00
35989;BME280;22064;42.672;23.282;2023-02-19T01:46:34;94926.06;;;5.79;100.00
35989;BME280;22064;42.672;23.282;2023-02-19T01:49:22;94945.09;;;5.85;100.00
35989;BME280;22064;42.672;23.282;2023-02-19T01:51:57;94938.16;;;5.79;100.00
35989;BME280;22064;42.672;23.282;2023-02-19T01:54:27;94922.31;;;5.69;100.00
35989;BME280;22064;42.672;23.282;2023-02-19T01:56:55;94958.53;;;5.55;100.00
35989;BME280;22064;42.672;23.282;2023-02-19T01:59:22;94937.47;;;5.52;100.00
35989;BME280;22064;42.672;23.282;2023-02-19T02:01:48;94932.88;;;5.54;100.00
35989;BME280;22064;42.672;23.282;2023-02-19T02:04:14;94934.28;;;5.56;100.00
35989;BME280;22064;42.672;23.282;2023-02-19T02:06:48;94921.59;;;5.48;100.00
35989;BME280;22064;42.672;23.282;2023-02-19T02:09:16;94927.53;;;5.49;100.00
35989;BME280;22064;42.672;23.282;2023-02-19T02:12:02;94920.78;;;5.48;100.00
35989;BME280;22064;42.672;23.282;2023-02-19T02:14:29;94918.59;;;5.58;100.00
35989;BME280;22064;42.672;23.282;2023-02-19T02:28:43;94932.72;;;5.42;100.00
35989;BME280;22064;42.672;23.282;2023-02-19T02:30:49;94937.69;;;5.44;100.00
35989;BME280;22064;42.672;23.282;2023-02-19T02:36:06;94940.66;;;5.41;100.00
35989;BME280;22064;42.672;23.282;2023-02-19T02:38:36;94935.91;;;5.31;100.00
35989;BME280;22064;42.672;23.282;2023-02-19T02:41:03;94939.31;;;5.18;100.00
35989;BME280;22064;42.672;23.282;2023-02-19T02:43:30;94945.06;;;5.27;100.00
35989;BME280;22064;42.672;23.282;2023-02-19T02:45:56;94943.88;;;5.23;100.00
35989;BME280;22064;42.672;23.282;2023-02-19T02:48:35;94946.63;;;5.35;100.00
35989;BME280;22064;42.672;23.282;2023-02-19T02:51:21;94943.84;;;5.43;100.00
35989;BME280;22064;42.672;23.282;2023-02-19T02:56:51;94947.44;;;5.28;100.00
35989;BME280;22064;42.672;23.282;2023-02-19T02:59:22;94932.16;;;5.33;100.00
35989;BME280;22064;42.672;23.282;2023-02-19T03:02:05;94935.50;;;5.41;100.00
35989;BME280;22064;42.672;23.282;2023-02-19T03:08:10;94947.81;;;5.39;100.00
35989;BME280;22064;42.672;23.282;2023-02-19T03:10:40;94950.44;;;5.19;100.00
35989;BME280;22064;42.672;23.282;2023-02-19T03:13:14;94955.41;;;5.07;100.00
35989;BME280;22064;42.672;23.282;2023-02-19T03:16:21;94942.50;;;4.94;100.00
35989;BME280;22064;42.672;23.282;2023-02-19T03:19:09;94944.28;;;4.67;100.00
35989;BME280;22064;42.672;23.282;2023-02-19T03:24:23;94936.75;;;4.58;100.00
35989;BME280;22064;42.672;23.282;2023-02-19T03:27:13;94959.53;;;4.48;100.00
35989;BME280;22064;42.672;23.282;2023-02-19T03:29:44;94960.13;;;4.57;100.00
35989;BME280;22064;42.672;23.282;2023-02-19T03:32:26;94964.53;;;5.03;100.00
35989;BME280;22064;42.672;23.282;2023-02-19T03:34:59;94972.47;;;5.01;100.00
35989;BME280;22064;42.672;23.282;2023-02-19T03:40:15;94982.78;;;4.88;100.00
35989;BME280;22064;42.672;23.282;2023-02-19T03:48:18;94972.28;;;4.90;100.00
35989;BME280;22064;42.672;23.282;2023-02-19T03:56:39;94990.53;;;4.88;100.00
35989;BME280;22064;42.672;23.282;2023-02-19T03:59:15;94985.75;;;4.92;100.00
35989;BME280;22064;42.672;23.282;2023-02-19T04:01:51;94984.97;;;4.98;100.00
35989;BME280;22064;42.672;23.282;2023-02-19T04:04:20;94993.53;;;5.18;100.00
35989;BME280;22064;42.672;23.282;2023-02-19T04:06:55;95002.28;;;5.17;100.00
35989;BME280;22064;42.672;23.282;2023-02-19T04:09:24;94998.28;;;5.21;100.00
35989;BME280;22064;42.672;23.282;2023-02-19T04:11:58;95001.06;;;5.26;100.00
35989;BME280;22064;42.672;23.282;2023-02-19T04:17:20;94999.06;;;5.42;100.00
35989;BME280;22064;42.672;23.282;2023-02-19T04:19:49;95004.03;;;5.37;100.00
35989;BME280;22064;42.672;23.282;2023-02-19T04:22:16;94997.09;;;5.24;100.00
35989;BME280;22064;42.672;23.282;2023-02-19T04:24:47;95014.56;;;5.48;100.00
35989;BME280;22064;42.672;23.282;2023-02-19T04:27:14;94999.84;;;5.55;100.00
35989;BME280;22064;42.672;23.282;2023-02-19T04:29:40;95009.00;;;5.31;100.00
35989;BME280;22064;42.672;23.282;2023-02-19T04:32:09;95002.25;;;5.30;100.00
35989;BME280;22064;42.672;23.282;2023-02-19T04:34:35;95006.41;;;5.31;100.00
35989;BME280;22064;42.672;23.282;2023-02-19T04:37:01;95001.88;;;5.20;100.00
35989;BME280;22064;42.672;23.282;2023-02-19T04:39:27;95007.63;;;5.22;100.00
35989;BME280;22064;42.672;23.282;2023-02-19T04:41:53;95006.25;;;5.33;100.00
35989;BME280;22064;42.672;23.282;2023-02-19T04:44:19;95013.97;;;5.26;100.00
35989;BME280;22064;42.672;23.282;2023-02-19T04:46:45;95014.75;;;5.07;100.00
35989;BME280;22064;42.672;23.282;2023-02-19T04:49:11;95015.56;;;5.14;100.00
35989;BME280;22064;42.672;23.282;2023-02-19T04:51:37;95005.44;;;5.19;100.00
35989;BME280;22064;42.672;23.282;2023-02-19T04:54:03;95019.31;;;5.38;100.00
35989;BME280;22064;42.672;23.282;2023-02-19T04:56:29;95026.88;;;5.46;100.00
35989;BME280;22064;42.672;23.282;2023-02-19T04:58:55;95022.13;;;5.37;100.00
35989;BME280;22064;42.672;23.282;2023-02-19T05:01:21;95023.91;;;5.49;100.00
35989;BME280;22064;42.672;23.282;2023-02-19T05:03:47;95027.25;;;5.63;100.00
35989;BME280;22064;42.672;23.282;2023-02-19T05:06:13;95027.63;;;5.87;100.00
35989;BME280;22064;42.672;23.282;2023-02-19T05:08:39;95016.09;;;5.89;100.00
35989;BME280;22064;42.672;23.282;2023-02-19T05:11:07;95028.78;;;5.97;100.00
35989;BME280;22064;42.672;23.282;2023-02-19T05:13:35;95019.94;;;6.32;100.00
35989;BME280;22064;42.672;23.282;2023-02-19T05:16:12;95034.00;;;6.49;100.00
35989;BME280;22064;42.672;23.282;2023-02-19T05:18:39;95024.78;;;6.60;100.00
35989;BME280;22064;42.672;23.282;2023-02-19T05:21:05;95021.59;;;6.96;100.00
35989;BME280;22064;42.672;23.282;2023-02-19T05:23:31;95031.78;;;7.66;100.00
35989;BME280;22064;42.672;23.282;2023-02-19T05:25:57;95034.66;;;8.01;99.43
35989;BME280;22064;42.672;23.282;2023-02-19T05:28:24;95034.13;;;9.08;84.54
35989;BME280;22064;42.672;23.282;2023-02-19T05:30:54;95026.06;;;9.52;78.13
35989;BME280;22064;42.672;23.282;2023-02-19T05:33:21;95025.38;;;9.56;76.45
35989;BME280;22064;42.672;23.282;2023-02-19T05:35:49;95028.53;;;10.05;71.31
35989;BME280;22064;42.672;23.282;2023-02-19T05:38:16;95039.50;;;10.07;70.71
35989;BME280;22064;42.672;23.282;2023-02-19T05:40:43;95034.09;;;9.97;70.00
35989;BME280;22064;42.672;23.282;2023-02-19T05:43:10;95049.47;;;10.10;69.67
35989;BME280;22064;42.672;23.282;2023-02-19T05:45:36;95034.63;;;10.34;67.58
35989;BME280;22064;42.672;23.282;2023-02-19T05:48:04;95043.69;;;10.32;66.78
35989;BME280;22064;42.672;23.282;2023-02-19T05:50:31;95038.69;;;10.30;66.78
35989;BME280;22064;42.672;23.282;2023-02-19T05:53:10;95028.63;;;10.22;67.10
35989;BME280;22064;42.672;23.282;2023-02-19T05:55:36;95009.31;;;10.06;68.03
35989;BME280;22064;42.672;23.282;2023-02-19T05:58:02;95043.78;;;10.25;67.58
35989;BME280;22064;42.672;23.282;2023-02-19T06:00:28;95047.19;;;10.26;67.83
35989;BME280;22064;42.672;23.282;2023-02-19T06:02:54;95054.94;;;10.49;67.06
35989;BME280;22064;42.672;23.282;2023-02-19T06:05:19;95064.03;;;10.47;67.39
35989;BME280;22064;42.672;23.282;2023-02-19T06:07:45;95083.97;;;10.41;68.10
35989;BME280;22064;42.672;23.282;2023-02-19T06:10:12;95080.41;;;10.59;66.63
35989;BME280;22064;42.672;23.282;2023-02-19T06:12:38;95076.41;;;10.68;66.81
35989;BME280;22064;42.672;23.282;2023-02-19T06:15:05;95078.59;;;10.59;66.51
35989;BME280;22064;42.672;23.282;2023-02-19T06:17:32;95079.94;;;10.62;67.04
35989;BME280;22064;42.672;23.282;2023-02-19T06:19:58;95083.09;;;10.64;67.17
35989;BME280;22064;42.672;23.282;2023-02-19T06:22:24;95087.28;;;10.65;67.04
35989;BME280;22064;42.672;23.282;2023-02-19T06:24:50;95081.16;;;10.71;67.17
35989;BME280;22064;42.672;23.282;2023-02-19T06:27:16;95090.03;;;10.58;66.69
35989;BME280;22064;42.672;23.282;2023-02-19T06:29:42;95087.53;;;10.63;66.91
35989;BME280;22064;42.672;23.282;2023-02-19T06:32:08;95075.75;;;10.61;66.34
35989;BME280;22064;42.672;23.282;2023-02-19T06:34:34;95074.53;;;10.52;66.26
35989;BME280;22064;42.672;23.282;2023-02-19T06:37:00;95086.97;;;10.61;65.90
35989;BME280;22064;42.672;23.282;2023-02-19T06:39:26;95081.44;;;10.58;66.37
35989;BME280;22064;42.672;23.282;2023-02-19T06:41:56;95074.25;;;10.65;64.91
35989;BME280;22064;42.672;23.282;2023-02-19T06:44:21;95074.72;;;10.62;65.39
35989;BME280;22064;42.672;23.282;2023-02-19T06:46:47;95074.72;;;10.62;64.80
35989;BME280;22064;42.672;23.282;2023-02-19T06:49:13;95090.56;;;10.72;63.76
35989;BME280;22064;42.672;23.282;2023-02-19T06:51:40;95081.16;;;10.71;64.29
35989;BME280;22064;42.672;23.282;2023-02-19T06:54:06;95087.41;;;10.70;64.48
35989;BME280;22064;42.672;23.282;2023-02-19T06:56:33;95088.66;;;10.68;63.94
35989;BME280;22064;42.672;23.282;2023-02-19T06:59:01;95091.03;;;10.69;63.96
35989;BME280;22064;42.672;23.282;2023-02-19T07:01:29;95084.69;;;10.65;63.70
35989;BME280;22064;42.672;23.282;2023-02-19T07:03:55;95101.31;;;10.76;63.02
35989;BME280;22064;42.672;23.282;2023-02-19T07:06:22;95092.59;;;10.70;62.98
35989;BME280;22064;42.672;23.282;2023-02-19T07:08:50;95095.66;;;10.67;63.96
35989;BME280;22064;42.672;23.282;2023-02-19T07:11:16;95083.41;;;10.79;65.32
35989;BME280;22064;42.672;23.282;2023-02-19T07:13:43;95087.25;;;10.77;64.23
35989;BME280;22064;42.672;23.282;2023-02-19T07:16:10;95097.97;;;10.40;65.55
35989;BME280;22064;42.672;23.282;2023-02-19T07:18:37;95098.91;;;10.22;67.47
35989;BME280;22064;42.672;23.282;2023-02-19T07:21:09;95094.25;;;10.24;67.49
35989;BME280;22064;42.672;23.282;2023-02-19T07:23:35;95083.63;;;10.02;68.80
35989;BME280;22064;42.672;23.282;2023-02-19T07:26:01;95081.91;;;9.84;70.05
35989;BME280;22064;42.672;23.282;2023-02-19T07:28:27;95092.78;;;9.69;72.55
35989;BME280;22064;42.672;23.282;2023-02-19T07:30:53;95075.69;;;9.62;73.88
35989;BME280;22064;42.672;23.282;2023-02-19T07:33:24;95088.72;;;9.74;74.31
35989;BME280;22064;42.672;23.282;2023-02-19T07:35:50;95077.19;;;9.93;72.56
35989;BME280;22064;42.672;23.282;2023-02-19T07:38:16;95073.22;;;10.14;70.58
35989;BME280;22064;42.672;23.282;2023-02-19T07:40:50;95074.22;;;10.25;70.25
35989;BME280;22064;42.672;23.282;2023-02-19T07:43:17;95064.97;;;10.29;69.25
35989;BME280;22064;42.672;23.282;2023-02-19T07:45:43;95078.63;;;10.48;68.68
35989;BME280;22064;42.672;23.282;2023-02-19T07:48:09;95069.94;;;10.71;67.04
35989;BME280;22064;42.672;23.282;2023-02-19T07:50:35;95075.88;;;10.95;65.01
35989;BME280;22064;42.672;23.282;2023-02-19T07:53:01;95064.63;;;11.06;64.03
35989;BME280;22064;42.672;23.282;2023-02-19T07:55:27;95056.56;;;11.24;61.92
35989;BME280;22064;42.672;23.282;2023-02-19T07:57:53;95060.97;;;11.69;59.73
35989;BME280;22064;42.672;23.282;2023-02-19T08:00:19;95055.75;;;11.86;57.57
35989;BME280;22064;42.672;23.282;2023-02-19T08:02:45;95065.63;;;12.01;56.22
35989;BME280;22064;42.672;23.282;2023-02-19T08:05:32;95055.09;;;12.13;55.45
35989;BME280;22064;42.672;23.282;2023-02-19T08:07:59;95053.06;;;12.20;55.01
35989;BME280;22064;42.672;23.282;2023-02-19T08:10:26;95046.69;;;12.11;55.23
35989;BME280;22064;42.672;23.282;2023-02-19T08:13:13;95061.78;;;12.25;54.75
35989;BME280;22064;42.672;23.282;2023-02-19T08:15:54;95062.16;;;12.34;53.69
35989;BME280;22064;42.672;23.282;2023-02-19T08:18:23;95061.72;;;12.42;53.07
35989;BME280;22064;42.672;23.282;2023-02-19T08:20:49;95060.25;;;12.52;52.71
35989;BME280;22064;42.672;23.282;2023-02-19T08:23:16;95054.19;;;12.68;53.12
35989;BME280;22064;42.672;23.282;2023-02-19T08:25:42;95061.97;;;12.63;52.76
35989;BME280;22064;42.672;23.282;2023-02-19T08:28:09;95066.34;;;12.57;52.71
35989;BME280;22064;42.672;23.282;2023-02-19T08:30:37;95061.59;;;12.54;53.38
35989;BME280;22064;42.672;23.282;2023-02-19T08:33:04;95054.31;;;12.56;53.43
35989;BME280;22064;42.672;23.282;2023-02-19T08:35:31;95089.72;;;12.69;52.60
35989;BME280;22064;42.672;23.282;2023-02-19T08:37:58;95070.03;;;12.61;52.14
35989;BME280;22064;42.672;23.282;2023-02-19T08:40:24;95061.59;;;12.76;52.21
35989;BME280;22064;42.672;23.282;2023-02-19T08:42:51;95063.00;;;12.84;51.74
35989;BME280;22064;42.672;23.282;2023-02-19T08:45:17;95051.56;;;12.90;51.01
35989;BME280;22064;42.672;23.282;2023-02-19T08:47:43;95053.13;;;12.91;51.17
35989;BME280;22064;42.672;23.282;2023-02-19T08:50:10;95061.53;;;12.93;51.01
35989;BME280;22064;42.672;23.282;2023-02-19T08:52:36;95037.25;;;12.98;51.03
35989;BME280;22064;42.672;23.282;2023-02-19T08:55:04;95029.75;;;13.06;50.96
35989;BME280;22064;42.672;23.282;2023-02-19T08:57:30;95043.88;;;13.05;51.76
35989;BME280;22064;42.672;23.282;2023-02-19T08:59:56;95045.94;;;13.03;52.63
35989;BME280;22064;42.672;23.282;2023-02-19T09:02:25;95024.38;;;12.91;52.46
35989;BME280;22064;42.672;23.282;2023-02-19T09:04:51;95029.34;;;13.20;51.98
35989;BME280;22064;42.672;23.282;2023-02-19T09:07:18;95037.44;;;13.45;51.65
35989;BME280;22064;42.672;23.282;2023-02-19T09:09:44;95019.16;;;13.50;51.39
35989;BME280;22064;42.672;23.282;2023-02-19T09:12:11;95040.53;;;13.37;51.51
35989;BME280;22064;42.672;23.282;2023-02-19T09:14:38;95016.97;;;13.37;52.12
35989;BME280;22064;42.672;23.282;2023-02-19T09:17:05;95022.56;;;13.24;52.27
35989;BME280;22064;42.672;23.282;2023-02-19T09:19:31;95006.56;;;12.88;52.97
35989;BME280;22064;42.672;23.282;2023-02-19T09:21:58;95016.28;;;13.20;52.98
35989;BME280;22064;42.672;23.282;2023-02-19T09:24:24;95018.88;;;13.20;52.68
35989;BME280;22064;42.672;23.282;2023-02-19T09:26:51;95016.88;;;13.27;53.07
35989;BME280;22064;42.672;23.282;2023-02-19T09:29:17;95011.59;;;13.22;53.22
35989;BME280;22064;42.672;23.282;2023-02-19T09:31:44;95027.88;;;13.29;53.02
35989;BME280;22064;42.672;23.282;2023-02-19T09:34:09;95012.53;;;13.10;53.27
35989;BME280;22064;42.672;23.282;2023-02-19T09:36:37;95012.63;;;13.21;53.35
35989;BME280;22064;42.672;23.282;2023-02-19T09:39:04;95010.19;;;13.41;52.72
35989;BME280;22064;42.672;23.282;2023-02-19T09:41:34;95001.97;;;13.59;51.79
35989;BME280;22064;42.672;23.282;2023-02-19T09:44:03;95012.47;;;13.65;53.00
35989;BME280;22064;42.672;23.282;2023-02-19T09:46:37;95011.28;;;13.45;51.57
35989;BME280;22064;42.672;23.282;2023-02-19T09:49:09;95008.72;;;13.50;51.71
35989;BME280;22064;42.672;23.282;2023-02-19T09:51:38;94995.78;;;13.71;51.61
35989;BME280;22064;42.672;23.282;2023-02-19T09:54:15;94995.47;;;13.67;52.46
35989;BME280;22064;42.672;23.282;2023-02-19T09:56:42;94991.94;;;13.83;51.17
35989;BME280;22064;42.672;23.282;2023-02-19T09:59:16;94971.31;;;13.97;50.00
35989;BME280;22064;42.672;23.282;2023-02-19T10:01:46;94979.47;;;14.06;48.54
35989;BME280;22064;42.672;23.282;2023-02-19T10:04:13;94951.63;;;13.84;49.04
35989;BME280;22064;42.672;23.282;2023-02-19T10:06:39;94955.88;;;14.01;48.94
35989;BME280;22064;42.672;23.282;2023-02-19T10:09:15;94953.91;;;14.33;48.21
35989;BME280;22064;42.672;23.282;2023-02-19T10:11:43;94954.19;;;14.37;48.19
35989;BME280;22064;42.672;23.282;2023-02-19T10:14:18;94932.19;;;14.43;47.51
35989;BME280;22064;42.672;23.282;2023-02-19T10:16:46;94930.59;;;14.42;47.34
35989;BME280;22064;42.672;23.282;2023-02-19T10:19:14;94924.84;;;14.45;47.53
35989;BME280;22064;42.672;23.282;2023-02-19T10:21:40;94917.16;;;14.03;48.27
35989;BME280;22064;42.672;23.282;2023-02-19T10:24:07;94925.19;;;13.91;48.46
35989;BME280;22064;42.672;23.282;2023-02-19T10:26:38;94912.09;;;13.86;49.15
35989;BME280;22064;42.672;23.282;2023-02-19T10:29:04;94913.22;;;14.10;48.10
35989;BME280;22064;42.672;23.282;2023-02-19T10:31:31;94905.41;;;14.16;47.85
35989;BME280;22064;42.672;23.282;2023-02-19T10:33:59;94900.16;;;14.16;48.01
35989;BME280;22064;42.672;23.282;2023-02-19T10:36:35;94914.38;;;14.40;47.86
35989;BME280;22064;42.672;23.282;2023-02-19T10:39:07;94894.91;;;14.05;48.11
35989;BME280;22064;42.672;23.282;2023-02-19T10:41:48;94884.16;;;14.07;48.17
35989;BME280;22064;42.672;23.282;2023-02-19T10:44:20;94888.88;;;14.10;47.78
35989;BME280;22064;42.672;23.282;2023-02-19T10:46:49;94833.06;;;13.84;47.78
35989;BME280;22064;42.672;23.282;2023-02-19T10:49:49;94856.72;;;14.45;47.47
35989;BME280;22064;42.672;23.282;2023-02-19T10:52:24;94874.03;;;14.31;46.98
35989;BME280;22064;42.672;23.282;2023-02-19T10:54:55;94855.66;;;14.26;47.60
35989;BME280;22064;42.672;23.282;2023-02-19T10:57:26;94851.03;;;14.64;46.57
35989;BME280;22064;42.672;23.282;2023-02-19T11:02:27;94846.03;;;14.98;45.27
35989;BME280;22064;42.672;23.282;2023-02-19T11:05:17;94824.28;;;14.92;45.11
35989;BME280;22064;42.672;23.282;2023-02-19T11:10:39;94817.47;;;15.01;44.92
35989;BME280;22064;42.672;23.282;2023-02-19T11:13:14;94818.50;;;15.00;44.09
35989;BME280;22064;42.672;23.282;2023-02-19T11:15:42;94800.63;;;15.28;44.42
35989;BME280;22064;42.672;23.282;2023-02-19T11:23:34;94808.94;;;15.51;43.48
35989;BME280;22064;42.672;23.282;2023-02-19T11:26:12;94797.84;;;15.74;42.89
35989;BME280;22064;42.672;23.282;2023-02-19T11:28:40;94801.03;;;15.61;43.17
35989;BME280;22064;42.672;23.282;2023-02-19T11:31:14;94793.72;;;15.47;43.15
35989;BME280;22064;42.672;23.282;2023-02-19T11:34:02;94772.97;;;15.56;42.86
35989;BME280;22064;42.672;23.282;2023-02-19T11:36:33;94788.47;;;15.58;42.71
35989;BME280;22064;42.672;23.282;2023-02-19T11:52:26;94758.19;;;16.20;39.96
35989;BME280;22064;42.672;23.282;2023-02-19T11:55:13;94754.94;;;16.33;40.13
35989;BME280;22064;42.672;23.282;2023-02-19T11:57:53;94732.28;;;16.43;39.82
35989;BME280;22064;42.672;23.282;2023-02-19T12:00:26;94743.75;;;16.52;39.05
35989;BME280;22064;42.672;23.282;2023-02-19T12:06:19;94722.13;;;16.31;39.13
35989;BME280;22064;42.672;23.282;2023-02-19T12:09:10;94722.31;;;16.39;39.06
35989;BME280;22064;42.672;23.282;2023-02-19T12:14:36;94725.69;;;16.74;38.11
35989;BME280;22064;42.672;23.282;2023-02-19T12:20:21;94703.41;;;16.67;37.64
35989;BME280;22064;42.672;23.282;2023-02-19T12:25:59;94677.72;;;16.58;37.68
35989;BME280;22064;42.672;23.282;2023-02-19T12:28:58;94693.25;;;16.84;37.66
35989;BME280;22064;42.672;23.282;2023-02-19T12:32:10;94683.78;;;17.07;36.92
35989;BME280;22064;42.672;23.282;2023-02-19T12:40:32;94676.38;;;16.90;36.60
35989;BME280;22064;42.672;23.282;2023-02-19T12:43:35;94669.09;;;17.06;37.06
35989;BME280;22064;42.672;23.282;2023-02-19T12:46:05;94664.34;;;16.84;36.92
35989;BME280;22064;42.672;23.282;2023-02-19T12:51:16;94642.72;;;17.11;37.31
35989;BME280;22064;42.672;23.282;2023-02-19T12:53:46;94634.44;;;17.42;36.36
35989;BME280;22064;42.672;23.282;2023-02-19T12:56:26;94626.53;;;17.61;36.08
35989;BME280;22064;42.672;23.282;2023-02-19T12:59:06;94617.69;;;17.70;36.80
35989;BME280;22064;42.672;23.282;2023-02-19T13:01:44;94621.03;;;17.95;36.82
35989;BME280;22064;42.672;23.282;2023-02-19T13:05:19;94612.31;;;18.13;36.47
35989;BME280;22064;42.672;23.282;2023-02-19T13:09:54;94616.94;;;18.49;36.60
35989;BME280;22064;42.672;23.282;2023-02-19T13:12:33;94612.63;;;18.39;36.36
35989;BME280;22064;42.672;23.282;2023-02-19T13:15:32;94616.66;;;18.64;36.20
35989;BME280;22064;42.672;23.282;2023-02-19T13:17:59;94611.97;;;18.75;35.85
35989;BME280;22064;42.672;23.282;2023-02-19T13:25:48;94588.47;;;18.05;34.73
35989;BME280;22064;42.672;23.282;2023-02-19T13:31:12;94570.97;;;18.83;34.23
35989;BME280;22064;42.672;23.282;2023-02-19T13:33:47;94580.31;;;19.39;33.57
35989;BME280;22064;42.672;23.282;2023-02-19T13:36:22;94571.34;;;19.63;34.02
35989;BME280;22064;42.672;23.282;2023-02-19T13:38:51;94567.41;;;19.74;34.14
35989;BME280;22064;42.672;23.282;2023-02-19T13:41:20;94529.44;;;19.47;33.82
35989;BME280;22064;42.672;23.282;2023-02-19T13:44:02;94570.41;;;20.03;33.35
35989;BME280;22064;42.672;23.282;2023-02-19T13:46:41;94555.16;;;20.09;33.67
35989;BME280;22064;42.672;23.282;2023-02-19T13:54:46;94550.63;;;20.32;32.26
35989;BME280;22064;42.672;23.282;2023-02-19T13:57:25;94545.91;;;20.20;32.51
35989;BME280;22064;42.672;23.282;2023-02-19T13:59:53;94553.84;;;20.20;32.54
35989;BME280;22064;42.672;23.282;2023-02-19T14:09:53;94538.91;;;19.93;32.96
35989;BME280;22064;42.672;23.282;2023-02-19T14:12:21;94545.50;;;20.04;33.27
35989;BME280;22064;42.672;23.282;2023-02-19T14:14:56;94544.81;;;20.21;32.97
35989;BME280;22064;42.672;23.282;2023-02-19T14:17:39;94532.41;;;19.99;32.95
35989;BME280;22064;42.672;23.282;2023-02-19T14:27:59;94522.63;;;20.40;32.24
35989;BME280;22064;42.672;23.282;2023-02-19T14:30:26;94520.84;;;20.18;32.74
35989;BME280;22064;42.672;23.282;2023-02-19T14:32:52;94512.25;;;20.03;32.76
35989;BME280;22064;42.672;23.282;2023-02-19T14:35:20;94518.22;;;19.87;33.02
35989;BME280;22064;42.672;23.282;2023-02-19T14:37:48;94514.44;;;19.56;33.45
35989;BME280;22064;42.672;23.282;2023-02-19T14:40:25;94513.97;;;19.32;33.80
35989;BME280;22064;42.672;23.282;2023-02-19T14:42:53;94504.34;;;19.13;34.36
35989;BME280;22064;42.672;23.282;2023-02-19T14:45:21;94504.09;;;19.01;34.28
35989;BME280;22064;42.672;23.282;2023-02-19T14:47:48;94496.78;;;19.21;34.10
35989;BME280;22064;42.672;23.282;2023-02-19T14:50:24;94500.28;;;19.30;34.14
35989;BME280;22064;42.672;23.282;2023-02-19T14:52:54;94498.91;;;18.96;34.70
35989;BME280;22064;42.672;23.282;2023-02-19T14:55:38;94481.38;;;18.78;34.82
35989;BME280;22064;42.672;23.282;2023-02-19T14:58:12;94499.50;;;19.07;34.59
35989;BME280;22064;42.672;23.282;2023-02-19T15:00:41;94501.56;;;18.96;34.82
35989;BME280;22064;42.672;23.282;2023-02-19T15:03:33;94500.53;;;18.69;35.25